sensor_id;sensor_type;location;lat;lon;timestamp;pressure;altitude;pressure_sealevel;temperature;humidity
75991;BME280;64673;52.276;10.560;2024-01-15T00:01:57;98783.91;;;0.56;100.00
75991;BME280;64673;52.276;10.560;2024-01-15T00:04:22;98778.13;;;0.59;100.00
75991;BME280;64673;52.276;10.560;2024-01-15T00:06:49;98782.31;;;0.55;100.00
75991;BME280;64673;52.276;10.560;2024-01-15T00:09:14;98793.97;;;0.54;100.00
75991;BME280;64673;52.276;10.560;2024-01-15T00:11:40;98773.31;;;0.56;100.00
75991;BME280;64673;52.276;10.560;2024-01-15T00:14:05;98787.31;;;0.52;100.00
75991;BME280;64673;52.276;10.560;2024-01-15T00:16:31;98771.13;;;0.53;100.00
75991;BME280;64673;52.276;10.560;2024-01-15T00:18:56;98769.00;;;0.50;100.00
75991;BME280;64673;52.276;10.560;2024-01-15T00:21:21;98777.19;;;0.49;100.00
75991;BME280;64673;52.276;10.560;2024-01-15T00:23:46;98764.66;;;0.44;100.00
75991;BME280;64673;52.276;10.560;2024-01-15T00:26:12;98765.00;;;0.48;100.00
75991;BME280;64673;52.276;10.560;2024-01-15T00:28:38;98752.84;;;0.30;100.00
75991;BME280;64673;52.276;10.560;2024-01-15T00:31:04;98768.31;;;0.38;100.00
75991;BME280;64673;52.276;10.560;2024-01-15T00:33:30;98766.16;;;0.35;100.00
75991;BME280;64673;52.276;10.560;2024-01-15T00:35:55;98757.97;;;0.36;100.00
75991;BME280;64673;52.276;10.560;2024-01-15T00:38:21;98765.91;;;0.36;100.00
75991;BME280;64673;52.276;10.560;2024-01-15T00:40:46;98769.38;;;0.37;100.00
75991;BME280;64673;52.276;10.560;2024-01-15T00:43:11;98771.28;;;0.42;100.00
75991;BME280;64673;52.276;10.560;2024-01-15T00:45:37;98772.09;;;0.42;100.00
75991;BME280;64673;52.276;10.560;2024-01-15T00:48:03;98772.13;;;0.47;100.00
75991;BME280;64673;52.276;10.560;2024-01-15T00:50:29;98770.28;;;0.48;100.00
75991;BME280;64673;52.276;10.560;2024-01-15T00:52:54;98770.59;;;0.51;100.00
75991;BME280;64673;52.276;10.560;2024-01-15T00:55:19;98741.56;;;0.40;100.00
75991;BME280;64673;52.276;10.560;2024-01-15T00:57:44;98749.16;;;0.53;100.00
75991;BME280;64673;52.276;10.560;2024-01-15T01:00:10;98743.84;;;0.53;100.00
75991;BME280;64673;52.276;10.560;2024-01-15T01:02:36;98764.53;;;0.56;100.00
75991;BME280;64673;52.276;10.560;2024-01-15T01:05:01;98745.69;;;0.52;100.00
75991;BME280;64673;52.276;10.560;2024-01-15T01:07:26;98749.38;;;0.51;100.00
75991;BME280;64673;52.276;10.560;2024-01-15T01:09:52;98741.69;;;0.50;100.00
75991;BME280;64673;52.276;10.560;2024-01-15T01:12:17;98757.34;;;0.51;100.00
75991;BME280;64673;52.276;10.560;2024-01-15T01:14:42;98748.28;;;0.47;100.00
75991;BME280;64673;52.276;10.560;2024-01-15T01:17:07;98746.56;;;0.36;100.00
75991;BME280;64673;52.276;10.560;2024-01-15T01:19:33;98752.34;;;0.33;100.00
75991;BME280;64673;52.276;10.560;2024-01-15T01:21:58;98746.22;;;0.32;100.00
75991;BME280;64673;52.276;10.560;2024-01-15T01:24:23;98765.88;;;0.31;100.00
75991;BME280;64673;52.276;10.560;2024-01-15T01:26:49;98753.38;;;0.32;100.00
75991;BME280;64673;52.276;10.560;2024-01-15T01:29:14;98758.69;;;0.32;100.00
75991;BME280;64673;52.276;10.560;2024-01-15T01:31:44;98750.69;;;0.27;100.00
75991;BME280;64673;52.276;10.560;2024-01-15T01:34:10;98748.53;;;0.24;100.00
75991;BME280;64673;52.276;10.560;2024-01-15T01:36:35;98747.66;;;0.18;100.00
75991;BME280;64673;52.276;10.560;2024-01-15T01:39:00;98752.16;;;0.18;100.00
75991;BME280;64673;52.276;10.560;2024-01-15T01:41:26;98746.38;;;0.21;100.00
75991;BME280;64673;52.276;10.560;2024-01-15T01:43:51;98757.47;;;0.18;100.00
75991;BME280;64673;52.276;10.560;2024-01-15T01:46:17;98743.53;;;0.27;100.00
75991;BME280;64673;52.276;10.560;2024-01-15T01:48:42;98744.59;;;0.26;100.00
75991;BME280;64673;52.276;10.560;2024-01-15T01:51:08;98747.00;;;0.28;100.00
75991;BME280;64673;52.276;10.560;2024-01-15T01:53:34;98739.63;;;0.35;100.00
75991;BME280;64673;52.276;10.560;2024-01-15T01:56:02;98742.06;;;0.36;100.00
75991;BME280;64673;52.276;10.560;2024-01-15T01:58:28;98749.28;;;0.41;100.00
75991;BME280;64673;52.276;10.560;2024-01-15T02:00:54;98729.03;;;0.35;100.00
75991;BME280;64673;52.276;10.560;2024-01-15T02:03:20;98748.28;;;0.47;100.00
75991;BME280;64673;52.276;10.560;2024-01-15T02:05:47;98740.06;;;0.49;100.00
75991;BME280;64673;52.276;10.560;2024-01-15T02:08:14;98742.47;;;0.50;100.00
75991;BME280;64673;52.276;10.560;2024-01-15T02:10:39;98737.19;;;0.50;100.00
75991;BME280;64673;52.276;10.560;2024-01-15T02:13:05;98726.56;;;0.50;100.00
75991;BME280;64673;52.276;10.560;2024-01-15T02:15:30;98731.88;;;0.50;100.00
75991;BME280;64673;52.276;10.560;2024-01-15T02:20:28;98713.88;;;0.52;100.00
75991;BME280;64673;52.276;10.560;2024-01-15T02:22:54;98710.13;;;0.53;100.00
75991;BME280;64673;52.276;10.560;2024-01-15T02:25:20;98703.25;;;0.52;100.00
75991;BME280;64673;52.276;10.560;2024-01-15T02:27:46;98701.94;;;0.55;100.00
75991;BME280;64673;52.276;10.560;2024-01-15T02:30:12;98708.84;;;0.56;100.00
75991;BME280;64673;52.276;10.560;2024-01-15T02:32:38;98701.44;;;0.58;100.00
75991;BME280;64673;52.276;10.560;2024-01-15T02:35:04;98698.53;;;0.59;100.00
75991;BME280;64673;52.276;10.560;2024-01-15T02:37:30;98692.75;;;0.62;100.00
75991;BME280;64673;52.276;10.560;2024-01-15T02:39:55;98693.03;;;0.66;100.00
75991;BME280;64673;52.276;10.560;2024-01-15T02:42:20;98688.84;;;0.70;100.00
75991;BME280;64673;52.276;10.560;2024-01-15T02:44:46;98680.63;;;0.71;100.00
75991;BME280;64673;52.276;10.560;2024-01-15T02:47:11;98676.41;;;0.76;100.00
75991;BME280;64673;52.276;10.560;2024-01-15T02:49:36;98681.72;;;0.76;100.00
75991;BME280;64673;52.276;10.560;2024-01-15T02:52:02;98676.97;;;0.78;100.00
75991;BME280;64673;52.276;10.560;2024-01-15T02:54:27;98679.84;;;0.76;100.00
75991;BME280;64673;52.276;10.560;2024-01-15T02:56:53;98681.22;;;0.79;100.00
75991;BME280;64673;52.276;10.560;2024-01-15T02:59:21;98675.66;;;0.80;100.00
75991;BME280;64673;52.276;10.560;2024-01-15T03:01:46;98675.91;;;0.79;100.00
75991;BME280;64673;52.276;10.560;2024-01-15T03:04:11;98672.25;;;0.85;100.00
75991;BME280;64673;52.276;10.560;2024-01-15T03:06:37;98664.56;;;0.88;100.00
75991;BME280;64673;52.276;10.560;2024-01-15T03:09:02;98673.59;;;0.87;100.00
75991;BME280;64673;52.276;10.560;2024-01-15T03:11:28;98677.59;;;0.90;100.00
75991;BME280;64673;52.276;10.560;2024-01-15T03:13:54;98657.97;;;0.91;100.00
75991;BME280;64673;52.276;10.560;2024-01-15T03:16:20;98643.00;;;0.80;100.00
75991;BME280;64673;52.276;10.560;2024-01-15T03:18:45;98656.16;;;0.96;100.00
75991;BME280;64673;52.276;10.560;2024-01-15T03:21:11;98663.31;;;0.96;100.00
75991;BME280;64673;52.276;10.560;2024-01-15T03:23:36;98664.66;;;0.98;100.00
75991;BME280;64673;52.276;10.560;2024-01-15T03:26:01;98661.75;;;1.00;100.00
75991;BME280;64673;52.276;10.560;2024-01-15T03:28:27;98658.56;;;0.98;100.00
75991;BME280;64673;52.276;10.560;2024-01-15T03:30:52;98657.25;;;1.00;100.00
75991;BME280;64673;52.276;10.560;2024-01-15T03:33:17;98655.94;;;1.03;100.00
75991;BME280;64673;52.276;10.560;2024-01-15T03:35:43;98656.44;;;1.00;100.00
75991;BME280;64673;52.276;10.560;2024-01-15T03:38:08;98656.69;;;0.98;100.00
75991;BME280;64673;52.276;10.560;2024-01-15T03:40:33;98650.59;;;0.98;100.00
75991;BME280;64673;52.276;10.560;2024-01-15T03:42:59;98651.38;;;0.98;100.00
75991;BME280;64673;52.276;10.560;2024-01-15T03:45:24;98664.38;;;0.95;100.00
75991;BME280;64673;52.276;10.560;2024-01-15T03:47:49;98656.94;;;0.97;100.00
75991;BME280;64673;52.276;10.560;2024-01-15T03:50:15;98644.22;;;0.99;100.00
75991;BME280;64673;52.276;10.560;2024-01-15T03:52:40;98647.75;;;1.04;100.00
75991;BME280;64673;52.276;10.560;2024-01-15T03:55:06;98666.03;;;1.06;100.00
75991;BME280;64673;52.276;10.560;2024-01-15T03:57:31;98661.84;;;1.10;100.00
75991;BME280;64673;52.276;10.560;2024-01-15T03:59:56;98652.50;;;1.07;100.00
75991;BME280;64673;52.276;10.560;2024-01-15T04:02:22;98653.84;;;1.05;100.00
75991;BME280;64673;52.276;10.560;2024-01-15T04:04:47;98653.56;;;1.06;100.00
75991;BME280;64673;52.276;10.560;2024-01-15T04:07:12;98658.31;;;0.99;100.00
75991;BME280;64673;52.276;10.560;2024-01-15T04:09:38;98661.94;;;0.88;100.00
75991;BME280;64673;52.276;10.560;2024-01-15T04:12:03;98663.44;;;0.79;100.00
75991;BME280;64673;52.276;10.560;2024-01-15T04:14:28;98665.88;;;0.86;100.00
75991;BME280;64673;52.276;10.560;2024-01-15T04:16:54;98665.34;;;0.84;100.00
75991;BME280;64673;52.276;10.560;2024-01-15T04:19:19;98668.53;;;0.86;100.00
75991;BME280;64673;52.276;10.560;2024-01-15T04:21:44;98672.25;;;0.85;100.00
75991;BME280;64673;52.276;10.560;2024-01-15T04:24:10;98681.47;;;0.77;100.00
75991;BME280;64673;52.276;10.560;2024-01-15T04:26:35;98673.25;;;0.79;100.00
75991;BME280;64673;52.276;10.560;2024-01-15T04:29:00;98664.19;;;0.74;100.00
75991;BME280;64673;52.276;10.560;2024-01-15T04:31:26;98670.50;;;0.68;100.00
75991;BME280;64673;52.276;10.560;2024-01-15T04:33:54;98664.72;;;0.71;100.00
75991;BME280;64673;52.276;10.560;2024-01-15T04:36:19;98671.91;;;0.76;100.00
75991;BME280;64673;52.276;10.560;2024-01-15T04:38:45;98656.28;;;0.80;100.00
75991;BME280;64673;52.276;10.560;2024-01-15T04:41:13;98656.59;;;0.83;100.00
75991;BME280;64673;52.276;10.560;2024-01-15T04:43:39;98663.78;;;0.88;100.00
75991;BME280;64673;52.276;10.560;2024-01-15T04:46:06;98673.66;;;0.92;100.00
75991;BME280;64673;52.276;10.560;2024-01-15T04:48:32;98665.97;;;0.96;100.00
75991;BME280;64673;52.276;10.560;2024-01-15T04:50:57;98667.56;;;0.97;100.00
75991;BME280;64673;52.276;10.560;2024-01-15T04:53:22;98663.34;;;1.01;100.00
75991;BME280;64673;52.276;10.560;2024-01-15T04:55:48;98667.63;;;1.02;100.00
75991;BME280;64673;52.276;10.560;2024-01-15T04:58:13;98670.78;;;0.99;100.00
75991;BME280;64673;52.276;10.560;2024-01-15T05:00:38;98666.75;;;0.96;100.00
75991;BME280;64673;52.276;10.560;2024-01-15T05:03:04;98663.31;;;0.96;100.00
75991;BME280;64673;52.276;10.560;2024-01-15T05:05:29;98662.78;;;0.94;100.00
75991;BME280;64673;52.276;10.560;2024-01-15T05:07:55;98659.06;;;0.95;100.00
75991;BME280;64673;52.276;10.560;2024-01-15T05:10:20;98660.41;;;0.97;100.00
75991;BME280;64673;52.276;10.560;2024-01-15T05:12:45;98672.38;;;1.00;100.00
75991;BME280;64673;52.276;10.560;2024-01-15T05:15:11;98667.31;;;0.98;100.00
75991;BME280;64673;52.276;10.560;2024-01-15T05:17:36;98665.47;;;0.99;100.00
75991;BME280;64673;52.276;10.560;2024-01-15T05:20:01;98654.84;;;0.99;100.00
75991;BME280;64673;52.276;10.560;2024-01-15T05:22:28;98660.47;;;1.02;100.00
75991;BME280;64673;52.276;10.560;2024-01-15T05:24:53;98669.69;;;0.95;100.00
75991;BME280;64673;52.276;10.560;2024-01-15T05:27:19;98665.03;;;0.80;100.00
75991;BME280;64673;52.276;10.560;2024-01-15T05:29:44;98672.69;;;0.77;100.00
75991;BME280;64673;52.276;10.560;2024-01-15T05:32:09;98663.91;;;0.71;100.00
75991;BME280;64673;52.276;10.560;2024-01-15T05:34:35;98663.56;;;0.62;100.00
75991;BME280;64673;52.276;10.560;2024-01-15T05:37:00;98671.72;;;0.56;100.00
75991;BME280;64673;52.276;10.560;2024-01-15T05:39:25;98676.72;;;0.52;100.00
75991;BME280;64673;52.276;10.560;2024-01-15T05:41:51;98667.16;;;0.51;100.00
75991;BME280;64673;52.276;10.560;2024-01-15T05:44:16;98668.78;;;0.52;100.00
75991;BME280;64673;52.276;10.560;2024-01-15T05:46:42;98656.59;;;0.56;100.00
75991;BME280;64673;52.276;10.560;2024-01-15T05:49:07;98645.50;;;0.59;100.00
75991;BME280;64673;52.276;10.560;2024-01-15T05:51:32;98649.78;;;0.65;100.00
75991;BME280;64673;52.276;10.560;2024-01-15T05:53:58;98653.28;;;0.71;100.00
75991;BME280;64673;52.276;10.560;2024-01-15T05:56:23;98656.78;;;0.77;100.00
75991;BME280;64673;52.276;10.560;2024-01-15T05:58:49;98639.88;;;0.83;100.00
75991;BME280;64673;52.276;10.560;2024-01-15T06:01:14;98659.75;;;0.80;100.00
75991;BME280;64673;52.276;10.560;2024-01-15T06:03:40;98655.47;;;0.79;100.00
75991;BME280;64673;52.276;10.560;2024-01-15T06:06:05;98650.91;;;0.74;100.00
75991;BME280;64673;52.276;10.560;2024-01-15T06:08:31;98642.19;;;0.74;100.00
75991;BME280;64673;52.276;10.560;2024-01-15T06:10:56;98642.44;;;0.72;100.00
75991;BME280;64673;52.276;10.560;2024-01-15T06:13:22;98655.94;;;0.71;100.00
75991;BME280;64673;52.276;10.560;2024-01-15T06:15:47;98642.44;;;0.72;100.00
75991;BME280;64673;52.276;10.560;2024-01-15T06:18:12;98649.59;;;0.72;100.00
75991;BME280;64673;52.276;10.560;2024-01-15T06:20:38;98647.50;;;0.74;100.00
75991;BME280;64673;52.276;10.560;2024-01-15T06:23:03;98650.97;;;0.80;100.00
75991;BME280;64673;52.276;10.560;2024-01-15T06:25:29;98659.19;;;0.78;100.00
75991;BME280;64673;52.276;10.560;2024-01-15T06:27:54;98653.56;;;0.74;100.00
75991;BME280;64673;52.276;10.560;2024-01-15T06:30:19;98658.59;;;0.71;100.00
75991;BME280;64673;52.276;10.560;2024-01-15T06:32:47;98661.44;;;0.64;100.00
75991;BME280;64673;52.276;10.560;2024-01-15T06:35:13;98651.91;;;0.63;100.00
75991;BME280;64673;52.276;10.560;2024-01-15T06:37:38;98671.31;;;0.42;100.00
75991;BME280;64673;52.276;10.560;2024-01-15T06:40:04;98671.41;;;0.25;100.00
75991;BME280;64673;52.276;10.560;2024-01-15T06:42:30;98673.81;;;0.27;100.00
75991;BME280;64673;52.276;10.560;2024-01-15T06:44:56;98660.31;;;0.28;100.00
75991;BME280;64673;52.276;10.560;2024-01-15T06:47:24;98662.72;;;0.30;100.00
75991;BME280;64673;52.276;10.560;2024-01-15T06:49:49;98663.00;;;0.33;100.00
75991;BME280;64673;52.276;10.560;2024-01-15T06:52:15;98662.19;;;0.33;100.00
75991;BME280;64673;52.276;10.560;2024-01-15T06:54:41;98670.16;;;0.33;100.00
75991;BME280;64673;52.276;10.560;2024-01-15T06:57:06;98667.00;;;0.36;100.00
75991;BME280;64673;52.276;10.560;2024-01-15T06:59:32;98654.78;;;0.35;100.00
75991;BME280;64673;52.276;10.560;2024-01-15T07:01:57;98669.97;;;0.40;100.00
75991;BME280;64673;52.276;10.560;2024-01-15T07:04:22;98674.72;;;0.38;100.00
75991;BME280;64673;52.276;10.560;2024-01-15T07:06:48;98666.50;;;0.39;100.00
75991;BME280;64673;52.276;10.560;2024-01-15T07:09:13;98668.59;;;0.37;100.00
75991;BME280;64673;52.276;10.560;2024-01-15T07:11:38;98661.69;;;0.36;100.00
75991;BME280;64673;52.276;10.560;2024-01-15T07:14:08;98674.41;;;0.34;100.00
75991;BME280;64673;52.276;10.560;2024-01-15T07:16:34;98673.41;;;0.40;100.00
75991;BME280;64673;52.276;10.560;2024-01-15T07:18:59;98669.44;;;0.43;100.00
75991;BME280;64673;52.276;10.560;2024-01-15T07:21:24;98664.69;;;0.45;100.00
75991;BME280;64673;52.276;10.560;2024-01-15T07:23:50;98672.41;;;0.46;100.00
75991;BME280;64673;52.276;10.560;2024-01-15T07:26:15;98681.97;;;0.47;100.00
75991;BME280;64673;52.276;10.560;2024-01-15T07:28:40;98675.94;;;0.52;100.00
75991;BME280;64673;52.276;10.560;2024-01-15T07:31:06;98686.72;;;0.45;100.00
75991;BME280;64673;52.276;10.560;2024-01-15T07:33:31;98691.13;;;0.34;100.00
75991;BME280;64673;52.276;10.560;2024-01-15T07:35:56;98695.84;;;0.32;100.00
75991;BME280;64673;52.276;10.560;2024-01-15T07:38:22;98699.03;;;0.29;100.00
75991;BME280;64673;52.276;10.560;2024-01-15T07:40:47;98708.50;;;0.25;100.00
75991;BME280;64673;52.276;10.560;2024-01-15T07:43:14;98699.19;;;0.23;100.00
75991;BME280;64673;52.276;10.560;2024-01-15T07:45:40;98695.94;;;0.16;100.00
75991;BME280;64673;52.276;10.560;2024-01-15T07:48:05;98691.19;;;0.18;100.00
75991;BME280;64673;52.276;10.560;2024-01-15T07:50:31;98694.94;;;0.22;100.00
75991;BME280;64673;52.276;10.560;2024-01-15T07:52:56;98702.72;;;0.28;100.00
75991;BME280;64673;52.276;10.560;2024-01-15T07:55:21;98687.72;;;0.39;100.00
75991;BME280;64673;52.276;10.560;2024-01-15T07:57:47;98688.81;;;0.43;100.00
75991;BME280;64673;52.276;10.560;2024-01-15T08:00:13;98697.63;;;0.49;100.00
75991;BME280;64673;52.276;10.560;2024-01-15T08:02:38;98683.81;;;0.47;100.00
75991;BME280;64673;52.276;10.560;2024-01-15T08:05:04;98689.88;;;0.42;100.00
75991;BME280;64673;52.276;10.560;2024-01-15T08:07:29;98702.13;;;0.48;100.00
75991;BME280;64673;52.276;10.560;2024-01-15T08:09:55;98702.69;;;0.50;100.00
75991;BME280;64673;52.276;10.560;2024-01-15T08:12:20;98702.72;;;0.55;100.00
75991;BME280;64673;52.276;10.560;2024-01-15T08:14:45;98702.25;;;0.58;100.00
75991;BME280;64673;52.276;10.560;2024-01-15T08:17:11;98703.34;;;0.62;100.00
75991;BME280;64673;52.276;10.560;2024-01-15T08:19:36;98706.34;;;0.71;100.00
75991;BME280;64673;52.276;10.560;2024-01-15T08:22:02;98711.84;;;0.64;100.00
75991;BME280;64673;52.276;10.560;2024-01-15T08:24:27;98704.41;;;0.61;100.00
75991;BME280;64673;52.276;10.560;2024-01-15T08:26:53;98702.91;;;0.70;100.00
75991;BME280;64673;52.276;10.560;2024-01-15T08:29:19;98708.59;;;0.57;100.00
75991;BME280;64673;52.276;10.560;2024-01-15T08:31:46;98696.94;;;0.58;100.00
75991;BME280;64673;52.276;10.560;2024-01-15T08:34:11;98705.69;;;0.59;100.00
75991;BME280;64673;52.276;10.560;2024-01-15T08:36:37;98704.81;;;0.53;100.00
75991;BME280;64673;52.276;10.560;2024-01-15T08:39:02;98714.09;;;0.51;100.00
75991;BME280;64673;52.276;10.560;2024-01-15T08:41:30;98707.75;;;0.52;100.00
75991;BME280;64673;52.276;10.560;2024-01-15T08:43:55;98703.25;;;0.52;100.00
75991;BME280;64673;52.276;10.560;2024-01-15T08:46:21;98710.66;;;0.50;100.00
75991;BME280;64673;52.276;10.560;2024-01-15T08:48:46;98705.84;;;0.47;100.00
75991;BME280;64673;52.276;10.560;2024-01-15T08:51:11;98711.16;;;0.47;100.00
75991;BME280;64673;52.276;10.560;2024-01-15T08:53:37;98709.53;;;0.46;100.00
75991;BME280;64673;52.276;10.560;2024-01-15T08:56:02;98708.56;;;0.52;100.00
75991;BME280;64673;52.276;10.560;2024-01-15T08:58:27;98710.00;;;0.38;100.00
75991;BME280;64673;52.276;10.560;2024-01-15T09:00:53;98712.97;;;0.42;100.00
75991;BME280;64673;52.276;10.560;2024-01-15T09:03:19;98708.69;;;0.41;100.00
75991;BME280;64673;52.276;10.560;2024-01-15T09:05:44;98720.78;;;0.31;100.00
75991;BME280;64673;52.276;10.560;2024-01-15T09:08:09;98712.78;;;0.26;100.00
75991;BME280;64673;52.276;10.560;2024-01-15T09:10:35;98704.00;;;0.26;100.00
75991;BME280;64673;52.276;10.560;2024-01-15T09:13:00;98721.31;;;0.33;100.00
75991;BME280;64673;52.276;10.560;2024-01-15T09:15:26;98721.56;;;0.32;100.00
75991;BME280;64673;52.276;10.560;2024-01-15T09:17:51;98730.88;;;0.34;100.00
75991;BME280;64673;52.276;10.560;2024-01-15T09:20:16;98724.38;;;0.42;100.00
75991;BME280;64673;52.276;10.560;2024-01-15T09:22:42;98716.44;;;0.47;100.00
75991;BME280;64673;52.276;10.560;2024-01-15T09:25:10;98730.31;;;0.54;100.00
75991;BME280;64673;52.276;10.560;2024-01-15T09:27:35;98732.09;;;0.70;100.00
75991;BME280;64673;52.276;10.560;2024-01-15T09:30:02;98733.72;;;0.77;100.00
75991;BME280;64673;52.276;10.560;2024-01-15T09:32:27;98730.97;;;0.66;100.00
75991;BME280;64673;52.276;10.560;2024-01-15T09:34:54;98734.88;;;0.59;100.00
75991;BME280;64673;52.276;10.560;2024-01-15T09:37:20;98738.78;;;0.51;100.00
75991;BME280;64673;52.276;10.560;2024-01-15T09:39:46;98753.53;;;0.42;100.00
75991;BME280;64673;52.276;10.560;2024-01-15T09:42:13;98739.47;;;0.42;100.00
75991;BME280;64673;52.276;10.560;2024-01-15T09:44:39;98751.16;;;0.46;100.00
75991;BME280;64673;52.276;10.560;2024-01-15T09:47:05;98743.06;;;0.57;100.00
75991;BME280;64673;52.276;10.560;2024-01-15T09:49:31;98760.66;;;0.63;100.00
75991;BME280;64673;52.276;10.560;2024-01-15T09:51:58;98749.28;;;0.68;100.00
75991;BME280;64673;52.276;10.560;2024-01-15T09:54:23;98756.28;;;0.74;100.00
75991;BME280;64673;52.276;10.560;2024-01-15T09:56:49;98743.03;;;0.79;100.00
75991;BME280;64673;52.276;10.560;2024-01-15T09:59:15;98739.09;;;0.82;100.00
75991;BME280;64673;52.276;10.560;2024-01-15T10:01:41;98743.38;;;0.88;100.00
75991;BME280;64673;52.276;10.560;2024-01-15T10:04:08;98739.13;;;0.87;100.00
75991;BME280;64673;52.276;10.560;2024-01-15T10:06:33;98738.09;;;0.88;100.00
75991;BME280;64673;52.276;10.560;2024-01-15T10:08:59;98737.28;;;0.87;100.00
75991;BME280;64673;52.276;10.560;2024-01-15T10:11:24;98742.41;;;0.94;100.00
75991;BME280;64673;52.276;10.560;2024-01-15T10:13:50;98744.81;;;0.95;100.00
75991;BME280;64673;52.276;10.560;2024-01-15T10:16:21;98737.38;;;0.97;100.00
75991;BME280;64673;52.276;10.560;2024-01-15T10:18:48;98740.03;;;0.97;100.00
75991;BME280;64673;52.276;10.560;2024-01-15T10:21:14;98739.28;;;1.02;100.00
75991;BME280;64673;52.276;10.560;2024-01-15T10:23:41;98736.66;;;1.07;100.00
75991;BME280;64673;52.276;10.560;2024-01-15T10:26:06;98727.88;;;1.01;100.00
75991;BME280;64673;52.276;10.560;2024-01-15T10:28:31;98747.00;;;1.03;100.00
75991;BME280;64673;52.276;10.560;2024-01-15T10:30:58;98747.09;;;1.14;100.00
75991;BME280;64673;52.276;10.560;2024-01-15T10:33:26;98751.59;;;1.13;100.00
75991;BME280;64673;52.276;10.560;2024-01-15T10:36:00;98745.00;;;1.16;100.00
75991;BME280;64673;52.276;10.560;2024-01-15T10:38:25;98748.47;;;1.21;100.00
75991;BME280;64673;52.276;10.560;2024-01-15T10:40:54;98740.50;;;1.21;100.00
75991;BME280;64673;52.276;10.560;2024-01-15T10:43:21;98741.88;;;1.24;100.00
75991;BME280;64673;52.276;10.560;2024-01-15T10:45:47;98739.97;;;1.19;100.00
75991;BME280;64673;52.276;10.560;2024-01-15T10:48:14;98739.16;;;1.19;100.00
75991;BME280;64673;52.276;10.560;2024-01-15T10:50:41;98738.34;;;1.18;100.00
75991;BME280;64673;52.276;10.560;2024-01-15T10:53:08;98746.38;;;1.23;100.00
75991;BME280;64673;52.276;10.560;2024-01-15T10:55:35;98746.38;;;1.23;100.00
75991;BME280;64673;52.276;10.560;2024-01-15T10:58:03;98731.75;;;1.21;100.00
75991;BME280;64673;52.276;10.560;2024-01-15T11:00:29;98739.47;;;1.22;100.00
75991;BME280;64673;52.276;10.560;2024-01-15T11:02:55;98735.50;;;1.25;100.00
75991;BME280;64673;52.276;10.560;2024-01-15T11:05:22;98731.25;;;1.24;100.00
75991;BME280;64673;52.276;10.560;2024-01-15T11:07:50;98737.06;;;1.21;100.00
75991;BME280;64673;52.276;10.560;2024-01-15T11:13:03;98756.41;;;1.16;100.00
75991;BME280;64673;52.276;10.560;2024-01-15T11:15:28;98739.88;;;1.09;100.00
75991;BME280;64673;52.276;10.560;2024-01-15T11:18:01;98744.91;;;1.05;100.00
75991;BME280;64673;52.276;10.560;2024-01-15T11:20:28;98759.50;;;1.08;100.00
75991;BME280;64673;52.276;10.560;2024-01-15T11:22:53;98744.00;;;0.95;100.00
75991;BME280;64673;52.276;10.560;2024-01-15T11:25:19;98744.81;;;0.95;100.00
75991;BME280;64673;52.276;10.560;2024-01-15T11:27:50;98745.59;;;0.96;100.00
75991;BME280;64673;52.276;10.560;2024-01-15T11:30:24;98743.00;;;1.01;100.00
75991;BME280;64673;52.276;10.560;2024-01-15T11:32:50;98741.69;;;1.03;100.00
75991;BME280;64673;52.276;10.560;2024-01-15T11:35:16;98733.56;;;1.15;100.00
75991;BME280;64673;52.276;10.560;2024-01-15T11:40:18;98735.19;;;1.21;100.00
75991;BME280;64673;52.276;10.560;2024-01-15T11:42:45;98727.00;;;1.28;100.00
75991;BME280;64673;52.276;10.560;2024-01-15T11:45:11;98731.63;;;1.37;100.00
75991;BME280;64673;52.276;10.560;2024-01-15T11:48:12;98730.47;;;1.28;100.00
75991;BME280;64673;52.276;10.560;2024-01-15T11:50:47;98728.41;;;1.35;100.00
75991;BME280;64673;52.276;10.560;2024-01-15T11:53:34;98725.72;;;1.30;100.00
75991;BME280;64673;52.276;10.560;2024-01-15T11:56:03;98730.28;;;1.35;100.00
75991;BME280;64673;52.276;10.560;2024-01-15T11:58:32;98728.66;;;1.34;100.00
75991;BME280;64673;52.276;10.560;2024-01-15T12:01:01;98726.22;;;1.27;100.00
75991;BME280;64673;52.276;10.560;2024-01-15T12:03:28;98720.13;;;1.27;100.00
75991;BME280;64673;52.276;10.560;2024-01-15T12:05:59;98720.81;;;1.17;100.00
75991;BME280;64673;52.276;10.560;2024-01-15T12:08:26;98726.94;;;1.18;100.00
75991;BME280;64673;52.276;10.560;2024-01-15T12:10:53;98731.75;;;1.21;100.00
75991;BME280;64673;52.276;10.560;2024-01-15T12:13:20;98726.50;;;1.26;100.00
75991;BME280;64673;52.276;10.560;2024-01-15T12:15:47;98728.50;;;1.45;100.00
75991;BME280;64673;52.276;10.560;2024-01-15T12:18:14;98729.56;;;1.50;100.00
75991;BME280;64673;52.276;10.560;2024-01-15T12:20:41;98721.06;;;1.48;100.00
75991;BME280;64673;52.276;10.560;2024-01-15T12:23:07;98727.19;;;1.48;100.00
75991;BME280;64673;52.276;10.560;2024-01-15T12:25:33;98715.75;;;1.48;100.00
75991;BME280;64673;52.276;10.560;2024-01-15T12:28:00;98720.53;;;1.45;100.00
75991;BME280;64673;52.276;10.560;2024-01-15T12:30:30;98720.53;;;1.51;100.00
75991;BME280;64673;52.276;10.560;2024-01-15T12:32:56;98724.78;;;1.46;100.00
75991;BME280;64673;52.276;10.560;2024-01-15T12:35:24;98742.81;;;1.44;100.00
75991;BME280;64673;52.276;10.560;2024-01-15T12:37:49;98725.31;;;1.48;100.00
75991;BME280;64673;52.276;10.560;2024-01-15T12:40:19;98732.19;;;1.44;100.00
75991;BME280;64673;52.276;10.560;2024-01-15T12:42:44;98725.28;;;1.43;100.00
75991;BME280;64673;52.276;10.560;2024-01-15T12:45:11;98727.38;;;1.41;100.00
75991;BME280;64673;52.276;10.560;2024-01-15T12:47:37;98727.88;;;1.33;100.00
75991;BME280;64673;52.276;10.560;2024-01-15T12:50:07;98718.88;;;1.39;100.00
75991;BME280;64673;52.276;10.560;2024-01-15T12:52:33;98729.41;;;1.29;100.00